Auckland International Airport
NZAA : now visible

Airfield :











YOU CAN JOIN US ON...

 
LOGIN :

Register | Disclaimer

   EN    FR    IT 

 









Legend :    VFR   Marginal VFR   IFR   Intensive IFR   Very Intensive IFR
Visi :
Ceiling :
>= 8 km
>= 3000ft
5 to 8 km
1000 to 3000 ft
1500m to 5 km
500 to 1000 ft
800 to 1500m
200 to 500 ft
< 800m
< 200 ft
Symbols :   Thunderstorms  Fog  Heavy snow  Heavy precipitations  Wind > 20 kt







- Airport Elevation : 23 ft
- IATA code : AKL


NZAA - Auckland International

CURRENT METAR :
  • 152100Z AUTO 21017KT 9999 SCT035/// BKN042/// 22/14 Q1013 NOSIG

EXPIRED METARs :
  • 152030Z AUTO 20017KT 9999 SCT035/// 21/14 Q1013 NOSIG
  • 152000Z AUTO 20017KT 9999 SCT029/// SCT034/// 21/14 Q1012 NOSIG
  • 151930Z AUTO 20016KT 9999 FEW031/// 21/15 Q1012 NOSIG
  • 151900Z AUTO 20014KT 9999 BKN030/// 20/15 Q1012 NOSIG
  • 151830Z AUTO 20015KT 9999 BKN030/// 19/14 Q1012 NOSIG

TAF COR TAF NZAA
Valid from the 15 at 18:00 until the 16 at 18:00 UTC


151743Z 1518/1618 22015KT 9999 SCT030
BECMG 1520/1522 20018G30KT
BECMG 1607/1609 20008KT
FM161300 12010KT 9999 -SHRA SCT020
NZZC FIR / Oceania



MET'MAP, your aeronautical weather chart ! - Copyright ORBIFLY December 2007 - Disclaimer

ORBIFLY MET'MAP TEAM :

Programming & Development : Alexandra Zaïnal
Concept & Development : Baudouin d'Aumeries
Co-Development & Prog : Marc-Olivier Méhu
Technical & hardware support : Manuel Goepfert

Contact : metmap@orbifly.com




SOURCES & CREDITS :

   NOAA       Earth
Advisory